sensor_id;sensor_type;location;lat;lon;timestamp;P1;durP1;ratioP1;P2;durP2;ratioP2
18407;SDS011;9330;52.210;21.174;2023-01-23T00:00:08;21.42;;;13.63;;
18407;SDS011;9330;52.210;21.174;2023-01-23T00:02:39;21.70;;;13.40;;
18407;SDS011;9330;52.210;21.174;2023-01-23T00:05:08;22.83;;;13.65;;
18407;SDS011;9330;52.210;21.174;2023-01-23T00:07:35;19.67;;;13.32;;
18407;SDS011;9330;52.210;21.174;2023-01-23T00:10:02;23.80;;;14.32;;
18407;SDS011;9330;52.210;21.174;2023-01-23T00:12:29;20.52;;;13.18;;
18407;SDS011;9330;52.210;21.174;2023-01-23T00:14:56;27.02;;;13.85;;
18407;SDS011;9330;52.210;21.174;2023-01-23T00:17:23;20.52;;;13.38;;
18407;SDS011;9330;52.210;21.174;2023-01-23T00:19:51;21.02;;;13.50;;
18407;SDS011;9330;52.210;21.174;2023-01-23T00:22:20;22.05;;;13.35;;
18407;SDS011;9330;52.210;21.174;2023-01-23T00:24:47;20.40;;;13.05;;
18407;SDS011;9330;52.210;21.174;2023-01-23T00:27:13;20.45;;;13.93;;
18407;SDS011;9330;52.210;21.174;2023-01-23T00:29:40;21.95;;;14.60;;
18407;SDS011;9330;52.210;21.174;2023-01-23T00:32:07;18.83;;;12.32;;
18407;SDS011;9330;52.210;21.174;2023-01-23T00:34:34;19.52;;;12.23;;
18407;SDS011;9330;52.210;21.174;2023-01-23T00:37:02;21.88;;;13.05;;
18407;SDS011;9330;52.210;21.174;2023-01-23T00:39:30;20.65;;;13.13;;
18407;SDS011;9330;52.210;21.174;2023-01-23T00:41:57;21.80;;;14.85;;
18407;SDS011;9330;52.210;21.174;2023-01-23T00:44:24;25.00;;;14.48;;
18407;SDS011;9330;52.210;21.174;2023-01-23T00:46:51;22.02;;;14.15;;
18407;SDS011;9330;52.210;21.174;2023-01-23T00:49:18;22.10;;;14.05;;
18407;SDS011;9330;52.210;21.174;2023-01-23T00:51:45;21.88;;;13.63;;
18407;SDS011;9330;52.210;21.174;2023-01-23T00:54:12;20.70;;;13.35;;
18407;SDS011;9330;52.210;21.174;2023-01-23T00:56:40;22.67;;;12.93;;
18407;SDS011;9330;52.210;21.174;2023-01-23T00:59:07;20.70;;;12.55;;
18407;SDS011;9330;52.210;21.174;2023-01-23T01:01:34;21.40;;;14.13;;
18407;SDS011;9330;52.210;21.174;2023-01-23T01:04:01;24.85;;;15.15;;
18407;SDS011;9330;52.210;21.174;2023-01-23T01:06:29;23.83;;;13.82;;
18407;SDS011;9330;52.210;21.174;2023-01-23T01:08:56;18.75;;;12.73;;
18407;SDS011;9330;52.210;21.174;2023-01-23T01:11:24;22.73;;;13.48;;
18407;SDS011;9330;52.210;21.174;2023-01-23T01:13:52;20.33;;;12.65;;
18407;SDS011;9330;52.210;21.174;2023-01-23T01:16:19;22.40;;;14.68;;
18407;SDS011;9330;52.210;21.174;2023-01-23T01:18:48;19.73;;;12.88;;
18407;SDS011;9330;52.210;21.174;2023-01-23T01:21:15;21.48;;;13.70;;
18407;SDS011;9330;52.210;21.174;2023-01-23T01:23:43;24.45;;;14.77;;
18407;SDS011;9330;52.210;21.174;2023-01-23T01:26:10;21.85;;;14.65;;
18407;SDS011;9330;52.210;21.174;2023-01-23T01:28:38;22.25;;;14.20;;
18407;SDS011;9330;52.210;21.174;2023-01-23T01:31:08;22.50;;;13.10;;
18407;SDS011;9330;52.210;21.174;2023-01-23T01:33:37;20.65;;;13.68;;
18407;SDS011;9330;52.210;21.174;2023-01-23T01:36:06;21.65;;;12.50;;
18407;SDS011;9330;52.210;21.174;2023-01-23T01:38:34;20.48;;;13.32;;
18407;SDS011;9330;52.210;21.174;2023-01-23T01:41:01;24.58;;;13.90;;
18407;SDS011;9330;52.210;21.174;2023-01-23T01:43:28;20.65;;;12.77;;
18407;SDS011;9330;52.210;21.174;2023-01-23T01:46:02;24.27;;;14.43;;
18407;SDS011;9330;52.210;21.174;2023-01-23T01:48:56;21.55;;;12.73;;
18407;SDS011;9330;52.210;21.174;2023-01-23T01:51:29;20.92;;;13.30;;
18407;SDS011;9330;52.210;21.174;2023-01-23T01:53:59;22.50;;;13.23;;
18407;SDS011;9330;52.210;21.174;2023-01-23T01:56:31;21.58;;;13.35;;
18407;SDS011;9330;52.210;21.174;2023-01-23T01:59:02;21.55;;;13.10;;
18407;SDS011;9330;52.210;21.174;2023-01-23T02:01:30;24.20;;;14.55;;
18407;SDS011;9330;52.210;21.174;2023-01-23T02:03:58;21.15;;;13.32;;
18407;SDS011;9330;52.210;21.174;2023-01-23T02:06:26;19.63;;;12.93;;
18407;SDS011;9330;52.210;21.174;2023-01-23T02:08:55;24.50;;;14.32;;
18407;SDS011;9330;52.210;21.174;2023-01-23T02:11:27;21.48;;;12.73;;
18407;SDS011;9330;52.210;21.174;2023-01-23T02:13:55;20.42;;;13.00;;
18407;SDS011;9330;52.210;21.174;2023-01-23T02:16:24;20.42;;;12.65;;
18407;SDS011;9330;52.210;21.174;2023-01-23T02:18:53;21.98;;;13.45;;
18407;SDS011;9330;52.210;21.174;2023-01-23T02:21:25;22.20;;;13.07;;
18407;SDS011;9330;52.210;21.174;2023-01-23T02:23:57;20.60;;;13.52;;
18407;SDS011;9330;52.210;21.174;2023-01-23T02:26:34;24.23;;;14.65;;
18407;SDS011;9330;52.210;21.174;2023-01-23T02:29:03;22.83;;;13.57;;
18407;SDS011;9330;52.210;21.174;2023-01-23T02:31:31;24.35;;;14.05;;
18407;SDS011;9330;52.210;21.174;2023-01-23T02:33:59;25.98;;;14.13;;
18407;SDS011;9330;52.210;21.174;2023-01-23T02:36:27;21.25;;;12.98;;
18407;SDS011;9330;52.210;21.174;2023-01-23T02:38:58;23.33;;;14.13;;
18407;SDS011;9330;52.210;21.174;2023-01-23T02:41:29;23.15;;;14.20;;
18407;SDS011;9330;52.210;21.174;2023-01-23T02:44:00;30.48;;;15.20;;
18407;SDS011;9330;52.210;21.174;2023-01-23T02:46:30;28.42;;;14.82;;
18407;SDS011;9330;52.210;21.174;2023-01-23T02:48:57;22.17;;;14.25;;
18407;SDS011;9330;52.210;21.174;2023-01-23T02:51:24;20.98;;;13.30;;
18407;SDS011;9330;52.210;21.174;2023-01-23T02:53:51;23.02;;;14.25;;
18407;SDS011;9330;52.210;21.174;2023-01-23T02:56:17;24.52;;;14.55;;
18407;SDS011;9330;52.210;21.174;2023-01-23T02:58:44;28.17;;;16.30;;
18407;SDS011;9330;52.210;21.174;2023-01-23T03:01:32;22.88;;;12.65;;
18407;SDS011;9330;52.210;21.174;2023-01-23T03:04:00;23.75;;;14.00;;
18407;SDS011;9330;52.210;21.174;2023-01-23T03:06:29;23.23;;;13.60;;
18407;SDS011;9330;52.210;21.174;2023-01-23T03:09:00;30.33;;;15.48;;
18407;SDS011;9330;52.210;21.174;2023-01-23T03:11:29;25.52;;;15.50;;
18407;SDS011;9330;52.210;21.174;2023-01-23T03:13:57;26.73;;;14.70;;
18407;SDS011;9330;52.210;21.174;2023-01-23T03:16:24;24.98;;;14.25;;
18407;SDS011;9330;52.210;21.174;2023-01-23T03:18:52;26.45;;;14.73;;
18407;SDS011;9330;52.210;21.174;2023-01-23T03:21:21;22.15;;;13.88;;
18407;SDS011;9330;52.210;21.174;2023-01-23T03:23:48;26.50;;;14.07;;
18407;SDS011;9330;52.210;21.174;2023-01-23T03:26:15;24.70;;;14.40;;
18407;SDS011;9330;52.210;21.174;2023-01-23T03:28:42;23.83;;;14.40;;
18407;SDS011;9330;52.210;21.174;2023-01-23T03:31:27;25.50;;;14.48;;
18407;SDS011;9330;52.210;21.174;2023-01-23T03:33:56;24.27;;;14.82;;
18407;SDS011;9330;52.210;21.174;2023-01-23T03:36:23;23.30;;;14.23;;
18407;SDS011;9330;52.210;21.174;2023-01-23T03:38:50;24.77;;;14.88;;
18407;SDS011;9330;52.210;21.174;2023-01-23T03:41:34;20.90;;;13.55;;
18407;SDS011;9330;52.210;21.174;2023-01-23T03:44:05;21.98;;;13.27;;
18407;SDS011;9330;52.210;21.174;2023-01-23T03:46:32;22.73;;;13.32;;
18407;SDS011;9330;52.210;21.174;2023-01-23T03:49:01;25.30;;;14.18;;
18407;SDS011;9330;52.210;21.174;2023-01-23T03:51:27;25.42;;;14.75;;
18407;SDS011;9330;52.210;21.174;2023-01-23T03:53:54;22.20;;;14.48;;
18407;SDS011;9330;52.210;21.174;2023-01-23T03:56:21;25.38;;;14.32;;
18407;SDS011;9330;52.210;21.174;2023-01-23T03:58:48;25.40;;;14.68;;
18407;SDS011;9330;52.210;21.174;2023-01-23T04:01:15;26.92;;;15.07;;
18407;SDS011;9330;52.210;21.174;2023-01-23T04:03:42;26.17;;;14.77;;
18407;SDS011;9330;52.210;21.174;2023-01-23T04:06:10;28.17;;;14.50;;
18407;SDS011;9330;52.210;21.174;2023-01-23T04:08:37;23.83;;;14.15;;
18407;SDS011;9330;52.210;21.174;2023-01-23T04:11:05;25.13;;;15.52;;
18407;SDS011;9330;52.210;21.174;2023-01-23T04:13:33;24.48;;;13.57;;
18407;SDS011;9330;52.210;21.174;2023-01-23T04:16:00;27.85;;;15.13;;
18407;SDS011;9330;52.210;21.174;2023-01-23T04:18:28;27.52;;;15.55;;
18407;SDS011;9330;52.210;21.174;2023-01-23T04:20:55;24.88;;;14.43;;
18407;SDS011;9330;52.210;21.174;2023-01-23T04:23:24;24.30;;;14.35;;
18407;SDS011;9330;52.210;21.174;2023-01-23T04:25:51;24.63;;;15.35;;
18407;SDS011;9330;52.210;21.174;2023-01-23T04:28:18;27.02;;;15.45;;
18407;SDS011;9330;52.210;21.174;2023-01-23T04:30:45;27.90;;;15.05;;
18407;SDS011;9330;52.210;21.174;2023-01-23T04:33:12;26.33;;;15.23;;
18407;SDS011;9330;52.210;21.174;2023-01-23T04:35:39;27.95;;;15.18;;
18407;SDS011;9330;52.210;21.174;2023-01-23T04:38:06;28.05;;;16.08;;
18407;SDS011;9330;52.210;21.174;2023-01-23T04:40:34;36.40;;;18.00;;
18407;SDS011;9330;52.210;21.174;2023-01-23T04:43:01;27.90;;;15.50;;
18407;SDS011;9330;52.210;21.174;2023-01-23T04:45:28;28.95;;;15.85;;
18407;SDS011;9330;52.210;21.174;2023-01-23T04:47:54;31.77;;;17.05;;
18407;SDS011;9330;52.210;21.174;2023-01-23T04:50:22;27.25;;;15.18;;
18407;SDS011;9330;52.210;21.174;2023-01-23T04:52:49;27.73;;;15.82;;
18407;SDS011;9330;52.210;21.174;2023-01-23T04:55:16;25.75;;;15.07;;
18407;SDS011;9330;52.210;21.174;2023-01-23T04:57:44;29.95;;;16.63;;
18407;SDS011;9330;52.210;21.174;2023-01-23T05:00:11;28.73;;;16.15;;
18407;SDS011;9330;52.210;21.174;2023-01-23T05:02:38;28.67;;;16.23;;
18407;SDS011;9330;52.210;21.174;2023-01-23T05:05:06;29.85;;;16.75;;
18407;SDS011;9330;52.210;21.174;2023-01-23T05:07:33;32.88;;;16.80;;
18407;SDS011;9330;52.210;21.174;2023-01-23T05:10:00;35.72;;;18.63;;
18407;SDS011;9330;52.210;21.174;2023-01-23T05:12:27;26.38;;;15.93;;
18407;SDS011;9330;52.210;21.174;2023-01-23T05:14:55;25.95;;;15.25;;
18407;SDS011;9330;52.210;21.174;2023-01-23T05:17:22;27.48;;;15.77;;
18407;SDS011;9330;52.210;21.174;2023-01-23T05:19:49;31.08;;;17.05;;
18407;SDS011;9330;52.210;21.174;2023-01-23T05:22:16;27.77;;;16.58;;
18407;SDS011;9330;52.210;21.174;2023-01-23T05:24:43;25.55;;;15.15;;
18407;SDS011;9330;52.210;21.174;2023-01-23T05:27:13;30.17;;;16.25;;
18407;SDS011;9330;52.210;21.174;2023-01-23T05:29:40;28.10;;;16.13;;
18407;SDS011;9330;52.210;21.174;2023-01-23T05:32:08;27.90;;;16.27;;
18407;SDS011;9330;52.210;21.174;2023-01-23T05:34:35;26.05;;;16.17;;
18407;SDS011;9330;52.210;21.174;2023-01-23T05:37:02;26.15;;;16.17;;
18407;SDS011;9330;52.210;21.174;2023-01-23T05:39:30;25.05;;;14.95;;
18407;SDS011;9330;52.210;21.174;2023-01-23T05:41:57;26.40;;;16.27;;
18407;SDS011;9330;52.210;21.174;2023-01-23T05:44:24;29.65;;;16.65;;
18407;SDS011;9330;52.210;21.174;2023-01-23T05:46:51;30.08;;;16.63;;
18407;SDS011;9330;52.210;21.174;2023-01-23T05:49:19;29.30;;;17.35;;
18407;SDS011;9330;52.210;21.174;2023-01-23T05:51:46;28.10;;;15.98;;
18407;SDS011;9330;52.210;21.174;2023-01-23T05:54:13;26.75;;;16.00;;
18407;SDS011;9330;52.210;21.174;2023-01-23T05:56:40;34.70;;;18.50;;
18407;SDS011;9330;52.210;21.174;2023-01-23T05:59:07;28.67;;;16.20;;
18407;SDS011;9330;52.210;21.174;2023-01-23T06:01:34;30.90;;;18.10;;
18407;SDS011;9330;52.210;21.174;2023-01-23T06:04:01;31.92;;;16.48;;
18407;SDS011;9330;52.210;21.174;2023-01-23T06:06:30;32.25;;;17.55;;
18407;SDS011;9330;52.210;21.174;2023-01-23T06:08:57;31.63;;;17.48;;
18407;SDS011;9330;52.210;21.174;2023-01-23T06:11:24;26.45;;;15.48;;
18407;SDS011;9330;52.210;21.174;2023-01-23T06:13:51;26.70;;;16.33;;
18407;SDS011;9330;52.210;21.174;2023-01-23T06:16:18;30.70;;;16.73;;
18407;SDS011;9330;52.210;21.174;2023-01-23T06:18:45;30.92;;;16.85;;
18407;SDS011;9330;52.210;21.174;2023-01-23T06:21:12;35.03;;;17.92;;
18407;SDS011;9330;52.210;21.174;2023-01-23T06:23:43;27.35;;;16.20;;
18407;SDS011;9330;52.210;21.174;2023-01-23T06:26:11;30.77;;;16.85;;
18407;SDS011;9330;52.210;21.174;2023-01-23T06:28:38;29.27;;;17.45;;
18407;SDS011;9330;52.210;21.174;2023-01-23T06:31:05;26.92;;;16.05;;
18407;SDS011;9330;52.210;21.174;2023-01-23T06:33:34;32.22;;;16.80;;
18407;SDS011;9330;52.210;21.174;2023-01-23T06:36:02;31.00;;;17.83;;
18407;SDS011;9330;52.210;21.174;2023-01-23T06:38:30;28.00;;;16.40;;
18407;SDS011;9330;52.210;21.174;2023-01-23T06:40:59;29.90;;;17.13;;
18407;SDS011;9330;52.210;21.174;2023-01-23T06:43:26;30.63;;;17.08;;
18407;SDS011;9330;52.210;21.174;2023-01-23T06:45:53;26.38;;;15.80;;
18407;SDS011;9330;52.210;21.174;2023-01-23T06:48:20;25.67;;;15.65;;
18407;SDS011;9330;52.210;21.174;2023-01-23T06:50:47;34.22;;;17.67;;
18407;SDS011;9330;52.210;21.174;2023-01-23T06:53:14;27.80;;;16.35;;
18407;SDS011;9330;52.210;21.174;2023-01-23T06:55:42;30.40;;;17.17;;
18407;SDS011;9330;52.210;21.174;2023-01-23T06:58:10;31.67;;;18.45;;
18407;SDS011;9330;52.210;21.174;2023-01-23T07:00:37;32.33;;;18.80;;
18407;SDS011;9330;52.210;21.174;2023-01-23T07:03:04;31.95;;;18.13;;
18407;SDS011;9330;52.210;21.174;2023-01-23T07:05:34;33.95;;;17.50;;
18407;SDS011;9330;52.210;21.174;2023-01-23T07:08:05;32.70;;;18.55;;
18407;SDS011;9330;52.210;21.174;2023-01-23T07:10:32;40.22;;;19.60;;
18407;SDS011;9330;52.210;21.174;2023-01-23T07:12:59;33.83;;;17.77;;
18407;SDS011;9330;52.210;21.174;2023-01-23T07:15:28;29.70;;;17.60;;
18407;SDS011;9330;52.210;21.174;2023-01-23T07:17:55;31.48;;;18.52;;
18407;SDS011;9330;52.210;21.174;2023-01-23T07:20:21;32.05;;;18.35;;
18407;SDS011;9330;52.210;21.174;2023-01-23T07:22:51;30.95;;;17.58;;
18407;SDS011;9330;52.210;21.174;2023-01-23T07:25:18;32.30;;;18.75;;
18407;SDS011;9330;52.210;21.174;2023-01-23T07:27:45;28.52;;;17.42;;
18407;SDS011;9330;52.210;21.174;2023-01-23T07:30:12;29.88;;;18.15;;
18407;SDS011;9330;52.210;21.174;2023-01-23T07:32:40;29.40;;;17.17;;
18407;SDS011;9330;52.210;21.174;2023-01-23T07:35:08;31.02;;;17.27;;
18407;SDS011;9330;52.210;21.174;2023-01-23T07:37:35;29.55;;;18.05;;
18407;SDS011;9330;52.210;21.174;2023-01-23T07:40:02;29.85;;;17.40;;
18407;SDS011;9330;52.210;21.174;2023-01-23T07:42:29;33.28;;;18.00;;
18407;SDS011;9330;52.210;21.174;2023-01-23T07:44:56;27.70;;;17.15;;
18407;SDS011;9330;52.210;21.174;2023-01-23T07:47:23;30.83;;;18.20;;
18407;SDS011;9330;52.210;21.174;2023-01-23T07:49:51;36.53;;;19.33;;
18407;SDS011;9330;52.210;21.174;2023-01-23T07:52:18;30.60;;;18.48;;
18407;SDS011;9330;52.210;21.174;2023-01-23T07:54:45;29.38;;;17.13;;
18407;SDS011;9330;52.210;21.174;2023-01-23T07:57:11;27.40;;;17.10;;
18407;SDS011;9330;52.210;21.174;2023-01-23T07:59:38;36.95;;;20.23;;
18407;SDS011;9330;52.210;21.174;2023-01-23T08:02:07;32.47;;;18.35;;
18407;SDS011;9330;52.210;21.174;2023-01-23T08:04:36;33.08;;;20.20;;
18407;SDS011;9330;52.210;21.174;2023-01-23T08:07:04;33.00;;;18.92;;
18407;SDS011;9330;52.210;21.174;2023-01-23T08:09:31;33.13;;;19.80;;
18407;SDS011;9330;52.210;21.174;2023-01-23T08:11:58;31.80;;;18.38;;
18407;SDS011;9330;52.210;21.174;2023-01-23T08:14:25;34.60;;;19.75;;
18407;SDS011;9330;52.210;21.174;2023-01-23T08:16:52;31.45;;;19.13;;
18407;SDS011;9330;52.210;21.174;2023-01-23T08:19:19;32.42;;;18.50;;
18407;SDS011;9330;52.210;21.174;2023-01-23T08:21:46;32.00;;;18.98;;
18407;SDS011;9330;52.210;21.174;2023-01-23T08:24:14;32.13;;;19.80;;
18407;SDS011;9330;52.210;21.174;2023-01-23T08:26:42;31.88;;;18.92;;
18407;SDS011;9330;52.210;21.174;2023-01-23T08:29:09;28.85;;;18.42;;
18407;SDS011;9330;52.210;21.174;2023-01-23T08:31:37;33.50;;;19.45;;
18407;SDS011;9330;52.210;21.174;2023-01-23T08:34:04;35.13;;;19.73;;
18407;SDS011;9330;52.210;21.174;2023-01-23T08:36:32;35.30;;;20.60;;
18407;SDS011;9330;52.210;21.174;2023-01-23T08:38:59;36.95;;;20.52;;
18407;SDS011;9330;52.210;21.174;2023-01-23T08:41:27;35.17;;;20.90;;
18407;SDS011;9330;52.210;21.174;2023-01-23T08:43:54;34.70;;;20.73;;
18407;SDS011;9330;52.210;21.174;2023-01-23T08:46:25;32.10;;;19.00;;
18407;SDS011;9330;52.210;21.174;2023-01-23T08:48:52;31.30;;;18.40;;
18407;SDS011;9330;52.210;21.174;2023-01-23T08:51:19;32.88;;;19.92;;
18407;SDS011;9330;52.210;21.174;2023-01-23T08:53:46;33.10;;;19.70;;
18407;SDS011;9330;52.210;21.174;2023-01-23T08:56:13;27.95;;;18.60;;
18407;SDS011;9330;52.210;21.174;2023-01-23T08:58:42;30.40;;;18.27;;
18407;SDS011;9330;52.210;21.174;2023-01-23T09:01:10;35.20;;;19.95;;
18407;SDS011;9330;52.210;21.174;2023-01-23T09:03:38;28.52;;;18.10;;
18407;SDS011;9330;52.210;21.174;2023-01-23T09:06:08;26.45;;;16.88;;
18407;SDS011;9330;52.210;21.174;2023-01-23T09:08:36;29.17;;;18.17;;
18407;SDS011;9330;52.210;21.174;2023-01-23T09:11:03;28.40;;;17.15;;
18407;SDS011;9330;52.210;21.174;2023-01-23T09:13:32;31.10;;;18.90;;
18407;SDS011;9330;52.210;21.174;2023-01-23T09:16:02;29.38;;;18.08;;
18407;SDS011;9330;52.210;21.174;2023-01-23T09:18:32;31.85;;;17.58;;
18407;SDS011;9330;52.210;21.174;2023-01-23T09:20:59;27.58;;;17.25;;
18407;SDS011;9330;52.210;21.174;2023-01-23T09:23:33;25.00;;;16.38;;
18407;SDS011;9330;52.210;21.174;2023-01-23T09:26:03;27.10;;;16.88;;
18407;SDS011;9330;52.210;21.174;2023-01-23T09:28:31;26.75;;;16.90;;
18407;SDS011;9330;52.210;21.174;2023-01-23T09:31:03;35.05;;;21.42;;
18407;SDS011;9330;52.210;21.174;2023-01-23T09:33:31;30.30;;;17.25;;
18407;SDS011;9330;52.210;21.174;2023-01-23T09:35:58;26.50;;;16.83;;
18407;SDS011;9330;52.210;21.174;2023-01-23T09:38:25;27.33;;;17.65;;
18407;SDS011;9330;52.210;21.174;2023-01-23T09:40:53;26.67;;;17.20;;
18407;SDS011;9330;52.210;21.174;2023-01-23T09:43:24;29.73;;;18.42;;
18407;SDS011;9330;52.210;21.174;2023-01-23T09:46:03;27.90;;;18.38;;
18407;SDS011;9330;52.210;21.174;2023-01-23T09:48:41;32.45;;;19.10;;
18407;SDS011;9330;52.210;21.174;2023-01-23T09:51:12;27.08;;;17.50;;
18407;SDS011;9330;52.210;21.174;2023-01-23T09:53:46;28.20;;;17.38;;
18407;SDS011;9330;52.210;21.174;2023-01-23T09:56:17;26.38;;;17.63;;
18407;SDS011;9330;52.210;21.174;2023-01-23T09:59:06;39.20;;;21.02;;
18407;SDS011;9330;52.210;21.174;2023-01-23T10:01:39;28.92;;;17.83;;
18407;SDS011;9330;52.210;21.174;2023-01-23T10:04:09;27.17;;;17.15;;
18407;SDS011;9330;52.210;21.174;2023-01-23T10:06:46;26.58;;;18.35;;
18407;SDS011;9330;52.210;21.174;2023-01-23T10:09:55;27.98;;;17.25;;
18407;SDS011;9330;52.210;21.174;2023-01-23T10:12:34;24.10;;;15.80;;
18407;SDS011;9330;52.210;21.174;2023-01-23T10:17:59;29.40;;;17.65;;
18407;SDS011;9330;52.210;21.174;2023-01-23T10:20:44;26.83;;;17.67;;
18407;SDS011;9330;52.210;21.174;2023-01-23T10:23:25;28.05;;;16.92;;
18407;SDS011;9330;52.210;21.174;2023-01-23T10:26:03;26.65;;;16.45;;
18407;SDS011;9330;52.210;21.174;2023-01-23T10:28:37;27.35;;;17.35;;
18407;SDS011;9330;52.210;21.174;2023-01-23T10:31:06;26.65;;;16.45;;
18407;SDS011;9330;52.210;21.174;2023-01-23T10:33:41;29.02;;;16.35;;
18407;SDS011;9330;52.210;21.174;2023-01-23T10:36:16;27.60;;;17.65;;
18407;SDS011;9330;52.210;21.174;2023-01-23T10:38:52;30.48;;;17.67;;
18407;SDS011;9330;52.210;21.174;2023-01-23T10:41:23;30.58;;;17.55;;
18407;SDS011;9330;52.210;21.174;2023-01-23T10:43:51;31.30;;;17.50;;
18407;SDS011;9330;52.210;21.174;2023-01-23T10:46:20;30.20;;;18.15;;
18407;SDS011;9330;52.210;21.174;2023-01-23T10:48:52;28.85;;;17.50;;
18407;SDS011;9330;52.210;21.174;2023-01-23T10:51:26;33.40;;;19.38;;
18407;SDS011;9330;52.210;21.174;2023-01-23T10:54:12;27.60;;;17.88;;
18407;SDS011;9330;52.210;21.174;2023-01-23T10:56:50;32.70;;;18.27;;
18407;SDS011;9330;52.210;21.174;2023-01-23T10:59:23;26.23;;;17.50;;
18407;SDS011;9330;52.210;21.174;2023-01-23T11:04:48;32.50;;;18.23;;
18407;SDS011;9330;52.210;21.174;2023-01-23T11:07:17;29.42;;;18.33;;
18407;SDS011;9330;52.210;21.174;2023-01-23T11:09:46;28.02;;;17.75;;
18407;SDS011;9330;52.210;21.174;2023-01-23T11:12:17;28.42;;;17.05;;
18407;SDS011;9330;52.210;21.174;2023-01-23T11:14:46;27.35;;;16.83;;
18407;SDS011;9330;52.210;21.174;2023-01-23T11:17:16;26.67;;;15.93;;
18407;SDS011;9330;52.210;21.174;2023-01-23T11:19:50;28.45;;;17.58;;
18407;SDS011;9330;52.210;21.174;2023-01-23T11:22:23;24.20;;;16.80;;
18407;SDS011;9330;52.210;21.174;2023-01-23T11:24:53;31.35;;;17.70;;
18407;SDS011;9330;52.210;21.174;2023-01-23T11:27:21;26.80;;;17.35;;
18407;SDS011;9330;52.210;21.174;2023-01-23T11:29:57;27.77;;;18.33;;
18407;SDS011;9330;52.210;21.174;2023-01-23T11:32:40;28.95;;;17.85;;
18407;SDS011;9330;52.210;21.174;2023-01-23T11:35:15;27.27;;;17.92;;
18407;SDS011;9330;52.210;21.174;2023-01-23T11:37:46;27.75;;;17.80;;
18407;SDS011;9330;52.210;21.174;2023-01-23T11:40:14;31.35;;;19.30;;
18407;SDS011;9330;52.210;21.174;2023-01-23T11:42:43;29.23;;;18.65;;
18407;SDS011;9330;52.210;21.174;2023-01-23T11:45:12;31.08;;;18.15;;
18407;SDS011;9330;52.210;21.174;2023-01-23T11:47:47;28.30;;;17.38;;
18407;SDS011;9330;52.210;21.174;2023-01-23T11:50:36;27.33;;;17.98;;
18407;SDS011;9330;52.210;21.174;2023-01-23T11:53:12;27.50;;;18.33;;
18407;SDS011;9330;52.210;21.174;2023-01-23T11:56:05;30.05;;;17.65;;
18407;SDS011;9330;52.210;21.174;2023-01-23T11:58:57;28.50;;;18.42;;
18407;SDS011;9330;52.210;21.174;2023-01-23T12:01:44;29.58;;;19.27;;
18407;SDS011;9330;52.210;21.174;2023-01-23T12:04:28;27.55;;;18.20;;
18407;SDS011;9330;52.210;21.174;2023-01-23T12:07:11;33.97;;;22.80;;
18407;SDS011;9330;52.210;21.174;2023-01-23T12:09:45;31.10;;;19.70;;
18407;SDS011;9330;52.210;21.174;2023-01-23T12:12:19;32.33;;;20.40;;
18407;SDS011;9330;52.210;21.174;2023-01-23T12:14:57;30.98;;;20.10;;
18407;SDS011;9330;52.210;21.174;2023-01-23T12:17:34;30.88;;;20.75;;
18407;SDS011;9330;52.210;21.174;2023-01-23T12:20:24;31.63;;;20.73;;
18407;SDS011;9330;52.210;21.174;2023-01-23T12:23:03;29.33;;;19.80;;
18407;SDS011;9330;52.210;21.174;2023-01-23T12:25:41;33.17;;;21.58;;
18407;SDS011;9330;52.210;21.174;2023-01-23T12:28:17;32.08;;;19.98;;
18407;SDS011;9330;52.210;21.174;2023-01-23T12:31:01;33.13;;;22.13;;
18407;SDS011;9330;52.210;21.174;2023-01-23T12:33:37;29.70;;;20.63;;
18407;SDS011;9330;52.210;21.174;2023-01-23T12:36:23;32.92;;;22.23;;
18407;SDS011;9330;52.210;21.174;2023-01-23T12:39:15;28.50;;;20.02;;
18407;SDS011;9330;52.210;21.174;2023-01-23T12:41:55;35.08;;;19.52;;
18407;SDS011;9330;52.210;21.174;2023-01-23T12:44:29;27.95;;;19.63;;
18407;SDS011;9330;52.210;21.174;2023-01-23T12:47:02;29.25;;;20.05;;
18407;SDS011;9330;52.210;21.174;2023-01-23T12:49:32;32.85;;;21.90;;
18407;SDS011;9330;52.210;21.174;2023-01-23T12:52:05;28.42;;;19.48;;
18407;SDS011;9330;52.210;21.174;2023-01-23T12:54:39;28.40;;;19.25;;
18407;SDS011;9330;52.210;21.174;2023-01-23T12:57:11;28.27;;;19.58;;
18407;SDS011;9330;52.210;21.174;2023-01-23T12:59:42;32.53;;;21.60;;
18407;SDS011;9330;52.210;21.174;2023-01-23T13:02:21;30.25;;;20.52;;
18407;SDS011;9330;52.210;21.174;2023-01-23T13:07:47;28.35;;;18.25;;
18407;SDS011;9330;52.210;21.174;2023-01-23T13:13:31;26.08;;;18.50;;
18407;SDS011;9330;52.210;21.174;2023-01-23T13:16:03;24.67;;;17.27;;
18407;SDS011;9330;52.210;21.174;2023-01-23T13:18:35;24.50;;;17.70;;
18407;SDS011;9330;52.210;21.174;2023-01-23T13:21:17;27.55;;;18.48;;
18407;SDS011;9330;52.210;21.174;2023-01-23T13:27:40;27.80;;;19.52;;
18407;SDS011;9330;52.210;21.174;2023-01-23T13:36:35;26.27;;;17.55;;
18407;SDS011;9330;52.210;21.174;2023-01-23T13:51:16;24.77;;;17.48;;
18407;SDS011;9330;52.210;21.174;2023-01-23T13:53:45;22.80;;;16.92;;
18407;SDS011;9330;52.210;21.174;2023-01-23T13:56:31;24.85;;;18.30;;
18407;SDS011;9330;52.210;21.174;2023-01-23T13:59:07;25.55;;;16.92;;
18407;SDS011;9330;52.210;21.174;2023-01-23T14:01:43;25.40;;;16.55;;
18407;SDS011;9330;52.210;21.174;2023-01-23T14:04:33;23.70;;;16.20;;
18407;SDS011;9330;52.210;21.174;2023-01-23T14:07:24;26.40;;;18.05;;
18407;SDS011;9330;52.210;21.174;2023-01-23T14:10:11;29.20;;;20.65;;
18407;SDS011;9330;52.210;21.174;2023-01-23T14:12:42;27.60;;;18.65;;
18407;SDS011;9330;52.210;21.174;2023-01-23T14:15:17;27.48;;;18.27;;
18407;SDS011;9330;52.210;21.174;2023-01-23T14:18:14;27.25;;;18.85;;
18407;SDS011;9330;52.210;21.174;2023-01-23T14:21:04;26.58;;;17.33;;
18407;SDS011;9330;52.210;21.174;2023-01-23T14:23:41;32.88;;;20.02;;
18407;SDS011;9330;52.210;21.174;2023-01-23T14:26:12;28.13;;;20.75;;
18407;SDS011;9330;52.210;21.174;2023-01-23T14:28:49;30.38;;;20.25;;
18407;SDS011;9330;52.210;21.174;2023-01-23T14:31:28;26.95;;;18.77;;
18407;SDS011;9330;52.210;21.174;2023-01-23T14:36:45;25.90;;;17.27;;
18407;SDS011;9330;52.210;21.174;2023-01-23T14:39:15;30.23;;;18.65;;
18407;SDS011;9330;52.210;21.174;2023-01-23T14:41:44;26.42;;;18.00;;
18407;SDS011;9330;52.210;21.174;2023-01-23T14:44:16;26.75;;;17.27;;
18407;SDS011;9330;52.210;21.174;2023-01-23T14:46:46;26.95;;;17.65;;
18407;SDS011;9330;52.210;21.174;2023-01-23T14:49:34;26.80;;;17.08;;
18407;SDS011;9330;52.210;21.174;2023-01-23T14:52:03;28.10;;;17.33;;
18407;SDS011;9330;52.210;21.174;2023-01-23T14:54:33;24.88;;;16.08;;
18407;SDS011;9330;52.210;21.174;2023-01-23T14:57:00;27.92;;;17.45;;
18407;SDS011;9330;52.210;21.174;2023-01-23T14:59:30;23.58;;;16.15;;
18407;SDS011;9330;52.210;21.174;2023-01-23T15:02:00;25.88;;;18.02;;
18407;SDS011;9330;52.210;21.174;2023-01-23T15:04:35;29.45;;;20.52;;
18407;SDS011;9330;52.210;21.174;2023-01-23T15:07:04;25.05;;;17.10;;
18407;SDS011;9330;52.210;21.174;2023-01-23T15:09:32;26.92;;;17.90;;
18407;SDS011;9330;52.210;21.174;2023-01-23T15:12:05;26.60;;;17.85;;
18407;SDS011;9330;52.210;21.174;2023-01-23T15:14:38;24.75;;;17.95;;
18407;SDS011;9330;52.210;21.174;2023-01-23T15:17:11;26.73;;;17.83;;